Time;durP1;ratioP1;P1;durP2;ratioP2;P2;SDS_P1;SDS_P2;PMS_P1;PMS_P2;Temp;Humidity;BMP_temperature;BMP_pressure;BME280_temperature;BME280_humidity;BME280_pressure;Samples;Min_cycle;Max_cycle;Signal;HPM_P1;HPM_P2
2022/07/26 00:00:11;;;;;;;;;9.80;9.20;;;;;18.87;57.94;99101.97;6342188;20;2768033;-59
2022/07/26 00:02:40;;;;;;;;;7.00;7.00;;;;;18.87;58.26;99104.69;6290488;20;2746171;-59
2022/07/26 00:05:17;;;;;;;;;10.00;8.20;;;;;18.60;58.94;99100.25;6310267;20;2761745;-59
2022/07/26 00:07:47;;;;;;;;;10.80;10.80;;;;;18.58;58.90;99089.53;6307426;20;2789871;-59
2022/07/26 00:10:15;;;;;;;;;10.67;10.67;;;;;18.64;58.38;99091.63;6281546;20;2788919;-59
2022/07/26 00:12:43;;;;;;;;;10.00;9.00;;;;;18.52;59.27;99092.88;6320345;20;2771113;-59
2022/07/26 00:15:12;;;;;;;;;8.00;8.00;;;;;18.26;60.37;99089.31;6307889;20;2744024;-59
2022/07/26 00:17:42;;;;;;;;;9.00;7.00;;;;;18.23;60.13;99078.75;6335597;20;2747194;-59
2022/07/26 00:20:11;;;;;;;;;9.67;9.00;;;;;18.46;59.39;99073.63;6282188;20;2763933;-59
2022/07/26 00:22:40;;;;;;;;;8.00;8.00;;;;;18.31;60.42;99071.50;6313754;20;2748226;-59
2022/07/26 00:25:09;;;;;;;;;10.50;9.00;;;;;18.14;60.35;99069.66;6286563;20;2769033;-59
2022/07/26 00:27:37;;;;;;;;;11.33;9.67;;;;;18.23;61.21;99073.31;6281243;20;3507544;-60
2022/07/26 00:30:09;;;;;;;;;10.00;10.00;;;;;18.25;60.95;99076.75;6318794;20;2776408;-59
2022/07/26 00:32:37;;;;;;;;;13.00;11.00;;;;;18.33;59.88;99079.50;6285753;20;2794071;-59
2022/07/26 00:35:06;;;;;;;;;9.00;9.00;;;;;18.28;59.91;99070.97;6291264;20;2753401;-59
2022/07/26 00:37:37;;;;;;;;;8.40;8.40;;;;;18.08;61.43;99065.72;6307267;20;2750254;-59
2022/07/26 00:40:08;;;;;;;;;10.00;9.20;;;;;17.62;62.96;99069.53;6338335;20;2779446;-59
2022/07/26 00:42:36;;;;;;;;;9.00;9.00;;;;;17.75;62.85;99073.56;6283886;20;2758738;-60
2022/07/26 00:45:08;;;;;;;;;8.50;8.50;;;;;17.73;62.99;99072.88;6286760;20;2738883;-62
2022/07/26 00:47:37;;;;;;;;;9.50;8.50;;;;;18.38;60.41;99071.75;6281003;20;2760695;-62
2022/07/26 00:50:13;;;;;;;;;8.80;8.80;;;;;18.72;58.84;99073.63;6303300;20;2752550;-62
2022/07/26 00:52:44;;;;;;;;;12.00;9.33;;;;;18.55;59.27;99073.53;6281468;20;2759661;-62
2022/07/26 00:55:14;;;;;;;;;8.00;8.00;;;;;18.28;60.60;99071.84;6317815;20;2763810;-63
2022/07/26 00:57:44;;;;;;;;;11.80;11.80;;;;;18.15;61.01;99072.25;6306216;20;2780639;-62
2022/07/26 01:00:20;;;;;;;;;10.33;8.67;;;;;18.16;60.95;99068.50;6283983;20;2758630;-63
2022/07/26 01:02:48;;;;;;;;;13.00;11.50;;;;;18.25;60.91;99055.00;6317130;20;2791958;-63
2022/07/26 01:05:17;;;;;;;;;10.00;10.00;;;;;18.14;61.15;99059.69;6289008;20;2795033;-63
2022/07/26 01:07:48;;;;;;;;;10.67;9.67;;;;;18.28;60.06;99060.13;6279923;20;3499279;-62
2022/07/26 01:10:17;;;;;;;;;13.33;10.67;;;;;18.18;60.67;99054.78;6314901;20;2790897;-63
2022/07/26 01:12:45;;;;;;;;;10.33;10.33;;;;;18.06;61.12;99053.31;6312861;20;3517037;-62
2022/07/26 01:15:15;;;;;;;;;14.00;12.00;;;;;17.95;61.46;99038.13;6316230;20;2801291;-63
2022/07/26 01:17:46;;;;;;;;;12.40;10.80;;;;;17.94;61.59;99037.28;6304904;20;2807620;-63
2022/07/26 01:20:15;;;;;;;;;13.67;11.67;;;;;18.15;61.50;99039.63;6282488;20;3525303;-62
2022/07/26 01:22:43;;;;;;;;;11.50;10.00;;;;;18.42;60.56;99040.50;6282905;20;2790858;-63
2022/07/26 01:25:11;;;;;;;;;13.33;12.00;;;;;18.55;60.11;99038.19;6282548;20;2789975;-62
2022/07/26 01:27:39;;;;;;;;;11.00;11.00;;;;;18.42;60.64;99032.34;6311169;20;2789966;-62
2022/07/26 01:30:11;;;;;;;;;12.00;10.00;;;;;18.43;60.64;99034.91;6286144;20;2794228;-63
2022/07/26 01:32:40;;;;;;;;;11.00;11.00;;;;;18.36;60.76;99038.44;6282706;20;2791100;-63
2022/07/26 01:35:09;;;;;;;;;12.67;11.00;;;;;18.60;60.12;99041.28;6311918;20;2790071;-63
2022/07/26 01:37:38;;;;;;;;;11.67;8.67;;;;;18.50;60.43;99032.38;6310452;20;3488921;-62
2022/07/26 01:40:09;;;;;;;;;11.00;11.00;;;;;18.36;61.44;99030.28;6312083;20;3509619;-62
2022/07/26 01:42:39;;;;;;;;;13.00;10.67;;;;;18.27;61.09;99032.06;6314273;20;2789947;-62
2022/07/26 01:45:10;;;;;;;;;13.00;13.00;;;;;18.28;60.59;99031.06;6311334;20;2792169;-63
2022/07/26 01:47:39;;;;;;;;;12.00;11.50;;;;;17.92;62.45;99023.00;6314266;20;2783609;-62
2022/07/26 01:50:09;;;;;;;;;11.67;11.67;;;;;17.70;62.82;99027.03;6277460;20;2784833;-62
2022/07/26 01:52:38;;;;;;;;;16.00;13.50;;;;;17.77;63.10;99019.97;6317251;20;2792951;-62
2022/07/26 01:55:07;;;;;;;;;10.00;10.00;;;;;17.54;63.64;99013.31;6279824;20;2771215;-62
2022/07/26 01:57:35;;;;;;;;;12.00;12.00;;;;;17.49;63.71;99013.78;6316127;20;2811708;-62
2022/07/26 02:00:06;;;;;;;;;11.00;11.00;;;;;17.36;64.41;99005.16;6281862;20;2789264;-62
2022/07/26 02:02:35;;;;;;;;;10.67;10.00;;;;;17.13;64.41;98999.31;6279140;20;3508585;-62
2022/07/26 02:05:06;;;;;;;;;11.33;11.33;;;;;17.42;64.47;99006.41;6313286;20;2789859;-62
2022/07/26 02:07:42;;;;;;;;;13.00;11.50;;;;;17.59;64.03;99000.13;6313690;20;2787871;-62
2022/07/26 02:10:13;;;;;;;;;9.00;8.00;;;;;17.62;63.11;98999.81;6281724;20;2752408;-62
2022/07/26 02:12:42;;;;;;;;;12.00;11.67;;;;;17.79;62.81;99003.53;6279922;20;3541034;-62
2022/07/26 02:15:13;;;;;;;;;14.00;13.00;;;;;17.94;62.32;99010.09;6280888;20;3513845;-62
2022/07/26 02:17:43;;;;;;;;;12.67;11.67;;;;;17.80;62.50;98999.81;6306683;20;2791000;-63
2022/07/26 02:20:15;;;;;;;;;11.33;10.33;;;;;17.86;62.50;99003.78;6313108;20;3513332;-62
2022/07/26 02:22:43;;;;;;;;;14.00;13.00;;;;;18.04;61.75;99003.75;6313697;20;2799300;-62
2022/07/26 02:25:12;;;;;;;;;13.00;13.00;;;;;18.40;60.33;98997.19;6281022;20;3523213;-62
2022/07/26 02:27:39;;;;;;;;;10.00;10.00;;;;;18.33;60.85;98997.97;6310561;20;2791956;-63
2022/07/26 02:30:08;;;;;;;;;11.00;11.00;;;;;18.61;59.29;98999.47;6286992;20;2786781;-63
2022/07/26 02:32:36;;;;;;;;;9.50;9.50;;;;;18.49;59.63;98997.22;6281847;20;2770167;-63
2022/07/26 02:35:05;;;;;;;;;11.67;11.67;;;;;18.02;61.87;99012.03;6279654;20;2786723;-62
2022/07/26 02:37:33;;;;;;;;;13.00;11.00;;;;;18.15;61.10;99007.03;6313268;20;2792031;-63
2022/07/26 02:40:12;;;;;;;;;11.00;11.00;;;;;18.00;61.91;99008.63;6281682;20;3512822;-63
2022/07/26 02:42:46;;;;;;;;;12.00;12.00;;;;;18.06;61.49;99008.00;6313620;20;3517937;-63
2022/07/26 02:45:15;;;;;;;;;12.67;12.00;;;;;17.93;62.02;99013.84;6308760;20;3508688;-63
2022/07/26 02:47:48;;;;;;;;;8.50;8.50;;;;;17.94;61.73;99014.69;6311450;20;2746076;-62
2022/07/26 02:50:20;;;;;;;;;12.00;12.00;;;;;18.02;61.96;99014.75;6278793;20;3512757;-63
2022/07/26 02:52:49;;;;;;;;;10.00;10.00;;;;;17.55;63.40;99013.13;6312211;20;3503372;-63
2022/07/26 02:55:23;;;;;;;;;12.00;12.00;;;;;17.33;64.00;99009.03;6311548;20;3513760;-63
2022/07/26 02:57:52;;;;;;;;;12.50;12.00;;;;;17.50;63.86;99017.34;6315826;20;2786735;-63
2022/07/26 03:00:25;;;;;;;;;13.67;10.00;;;;;17.72;62.49;99016.88;6279905;20;3516004;-63
2022/07/26 03:02:53;;;;;;;;;14.00;12.50;;;;;17.43;63.99;99016.22;6309857;20;2800416;-63
2022/07/26 03:05:22;;;;;;;;;13.33;12.33;;;;;17.53;63.73;99022.44;6277584;20;3521259;-60
2022/07/26 03:07:51;;;;;;;;;11.00;11.00;;;;;17.62;63.22;99021.53;6306623;20;3519113;-60
2022/07/26 03:10:19;;;;;;;;;11.50;11.50;;;;;17.73;62.59;99024.00;6313016;20;2797141;-60
2022/07/26 03:12:47;;;;;;;;;14.50;14.00;;;;;17.59;63.11;99016.41;6287060;20;2792954;-60
2022/07/26 03:15:14;;;;;;;;;13.00;12.50;;;;;17.82;63.10;99015.94;6286614;20;2793995;-60
2022/07/26 03:17:42;;;;;;;;;16.00;13.00;;;;;17.67;63.61;99015.63;6284380;20;2812763;-60
2022/07/26 03:20:11;;;;;;;;;14.00;12.00;;;;;18.06;62.66;99010.72;6287947;20;2797383;-60
2022/07/26 03:22:40;;;;;;;;;11.67;11.67;;;;;17.92;63.36;99000.41;6281506;20;3537771;-60
2022/07/26 03:25:09;;;;;;;;;13.00;11.67;;;;;17.81;63.62;99000.69;6315005;20;3511700;-61
2022/07/26 03:27:37;;;;;;;;;13.33;12.00;;;;;17.95;62.97;99005.53;6311902;20;3537755;-64
2022/07/26 03:30:08;;;;;;;;;15.33;12.33;;;;;17.80;63.35;99001.66;6316395;20;3528459;-63
2022/07/26 03:32:36;;;;;;;;;15.00;13.50;;;;;18.00;62.88;99003.19;6320223;20;2807246;-63
2022/07/26 03:35:06;;;;;;;;;18.33;13.33;;;;;18.33;61.52;99003.41;6287473;20;2818019;-64
2022/07/26 03:37:35;;;;;;;;;17.33;13.33;;;;;18.04;62.66;99011.88;6310715;20;3543021;-64
2022/07/26 03:40:15;;;;;;;;;17.00;15.00;;;;;17.89;63.41;98998.00;6314186;20;2491988;-64
2022/07/26 03:42:46;;;;;;;;;16.00;14.33;;;;;18.06;63.15;98999.84;6283588;20;3537819;-64
2022/07/26 03:45:15;;;;;;;;;12.00;12.00;;;;;17.98;63.07;99000.66;6312850;20;3518986;-64
2022/07/26 03:47:45;;;;;;;;;16.00;14.00;;;;;18.20;62.72;98999.25;6314879;20;2795035;-63
2022/07/26 03:50:13;;;;;;;;;12.00;12.00;;;;;18.15;62.68;99001.59;6283693;20;3505565;-64
2022/07/26 03:52:42;;;;;;;;;13.67;12.00;;;;;17.99;63.61;98996.91;6315107;20;3536831;-62
2022/07/26 03:57:58;;;;;;;;;16.00;12.00;;;;;17.98;63.46;98999.75;6315829;20;3513795;-61
2022/07/26 04:00:26;;;;;;;;;13.50;13.50;;;;;18.20;62.57;98993.81;6319730;20;2790939;-60
2022/07/26 04:02:55;;;;;;;;;15.33;15.33;;;;;18.47;61.86;98988.38;6285175;20;3538815;-61
2022/07/26 04:05:23;;;;;;;;;16.67;14.33;;;;;18.53;61.83;98999.44;6314088;20;3537870;-61
2022/07/26 04:07:53;;;;;;;;;15.67;14.33;;;;;18.91;60.08;98991.81;6317423;20;3536694;-61
2022/07/26 04:10:23;;;;;;;;;13.00;13.00;;;;;19.19;59.37;98999.69;6318338;20;2806564;-61
2022/07/26 04:12:52;;;;;;;;;16.00;15.00;;;;;19.40;58.85;99008.25;6283884;20;3538868;-61
2022/07/26 04:15:20;;;;;;;;;14.00;14.00;;;;;19.30;59.83;99002.13;6285820;20;2496253;-61
2022/07/26 04:17:48;;;;;;;;;14.00;14.00;;;;;19.55;57.90;99004.88;6285559;20;2491908;-61
2022/07/26 04:20:16;;;;;;;;;13.50;13.00;;;;;19.74;57.40;98993.69;6288742;20;2806536;-61
2022/07/26 04:22:44;;;;;;;;;13.00;13.00;;;;;19.53;58.01;99003.16;6285380;20;2796123;-61
2022/07/26 04:25:12;;;;;;;;;16.00;13.33;;;;;19.58;57.59;98999.09;6285257;20;3531537;-61
2022/07/26 04:27:40;;;;;;;;;15.00;14.00;;;;;19.83;56.43;98989.94;6278807;20;2489892;-61
2022/07/26 04:30:10;;;;;;;;;15.00;15.00;;;;;19.99;56.52;98996.41;6281827;20;3535693;-61
2022/07/26 04:32:44;;;;;;;;;14.33;14.00;;;;;20.23;55.36;98993.63;6282681;20;3527344;-61
2022/07/26 04:35:15;;;;;;;;;15.67;14.67;;;;;20.30;54.97;98994.66;6283560;20;3539819;-61
2022/07/26 04:37:45;;;;;;;;;14.00;14.00;;;;;20.50;54.58;98988.78;6279660;20;3527446;-61
2022/07/26 04:40:21;;;;;;;;;13.00;11.00;;;;;20.36;54.64;98983.03;6286731;20;2785713;-62
2022/07/26 04:42:51;;;;;;;;;12.67;12.67;;;;;20.43;54.63;98990.50;6284579;20;3527345;-61
2022/07/26 04:45:20;;;;;;;;;13.67;13.33;;;;;20.66;53.68;98991.50;6280848;20;3524386;-61
2022/07/26 04:47:50;;;;;;;;;9.25;9.25;;;;;20.63;54.06;98989.13;6338824;20;2708660;-61
2022/07/26 04:50:23;;;;;;;;;14.33;14.33;;;;;20.83;53.59;98986.84;6311590;20;3525287;-61
2022/07/26 04:52:52;;;;;;;;;15.67;14.00;;;;;20.98;53.42;98990.50;6283473;20;3535769;-61
2022/07/26 04:55:22;;;;;;;;;15.00;12.00;;;;;21.18;52.57;98993.63;6284661;20;2491998;-61
2022/07/26 04:57:51;;;;;;;;;12.33;11.00;;;;;21.17;53.02;99005.59;6284193;20;2791949;-61
2022/07/26 05:00:24;;;;;;;;;15.33;14.67;;;;;20.94;54.33;98993.78;6316510;20;3544081;-61
2022/07/26 05:02:57;;;;;;;;;14.00;11.50;;;;;21.28;52.68;98993.41;6313332;20;2491961;-61
2022/07/26 05:05:31;;;;;;;;;17.00;15.00;;;;;21.29;52.40;98995.09;6288213;20;3544010;-61
2022/07/26 05:08:02;;;;;;;;;15.67;13.00;;;;;21.37;53.06;98997.78;6313109;20;3544021;-62
2022/07/26 05:10:36;;;;;;;;;14.00;13.67;;;;;21.32;52.52;99004.81;6282925;20;3540888;-61
2022/07/26 05:13:06;;;;;;;;;12.00;12.00;;;;;21.66;51.59;99012.63;6282225;20;3530659;-61
2022/07/26 05:15:35;;;;;;;;;15.50;12.50;;;;;21.83;51.00;99018.84;6280261;20;2597230;-61
2022/07/26 05:18:07;;;;;;;;;13.00;12.00;;;;;22.01;51.53;99019.38;6286958;20;2795048;-61
2022/07/26 05:20:38;;;;;;;;;16.00;14.33;;;;;22.45;50.04;99026.81;6281418;20;3531466;-61
2022/07/26 05:23:07;;;;;;;;;13.67;13.00;;;;;22.66;48.71;99036.19;6311776;20;3526292;-61
2022/07/26 05:25:36;;;;;;;;;17.67;15.33;;;;;22.91;47.82;99044.97;6282304;20;3556523;-61
2022/07/26 05:28:05;;;;;;;;;15.33;13.67;;;;;23.50;46.96;99053.09;6310493;20;3548326;-61
2022/07/26 05:30:33;;;;;;;;;14.67;14.67;;;;;23.65;46.29;99053.06;6282395;20;2492032;-61
2022/07/26 05:33:02;;;;;;;;;12.33;12.33;;;;;23.58;46.79;99055.72;6314177;20;2491968;-61
2022/07/26 05:35:31;;;;;;;;;15.00;13.33;;;;;23.31;47.36;99057.31;6312704;20;3531465;-61
2022/07/26 05:37:59;;;;;;;;;14.00;13.00;;;;;23.22;47.72;99052.97;6312667;20;3518979;-61
2022/07/26 05:40:28;;;;;;;;;14.67;12.33;;;;;23.28;47.96;99046.75;6280486;20;2483599;-61
2022/07/26 05:42:57;;;;;;;;;13.67;11.67;;;;;23.22;47.17;99031.94;6313841;20;3517931;-61
2022/07/26 05:45:25;;;;;;;;;14.33;13.00;;;;;23.23;47.42;99035.50;6278872;20;3515942;-61
2022/07/26 05:47:54;;;;;;;;;12.00;12.00;;;;;23.30;48.29;99039.19;6279331;20;2787827;-60
2022/07/26 05:50:23;;;;;;;;;16.67;13.00;;;;;23.82;45.97;99038.06;6310182;20;3529432;-61
2022/07/26 05:52:51;;;;;;;;;13.00;13.00;;;;;24.49;44.69;99036.78;6281318;20;3537784;-60
2022/07/26 05:55:21;;;;;;;;;16.00;15.00;;;;;24.57;44.78;99034.94;6278421;20;2817064;-61
2022/07/26 05:57:49;;;;;;;;;16.33;15.00;;;;;24.27;44.66;99027.72;6279323;20;3534669;-61
2022/07/26 06:00:19;;;;;;;;;14.00;13.67;;;;;24.03;45.60;99028.16;6280236;20;3515021;-61
2022/07/26 06:02:48;;;;;;;;;14.00;12.00;;;;;24.17;45.51;99034.59;6280428;20;2793057;-61
2022/07/26 06:05:17;;;;;;;;;14.00;12.67;;;;;24.36;45.93;99044.06;6280090;20;3527302;-61
2022/07/26 06:07:45;;;;;;;;;15.33;15.33;;;;;24.85;44.69;99045.88;6277221;20;2483691;-61
2022/07/26 06:10:14;;;;;;;;;13.67;12.00;;;;;24.59;44.79;99050.16;6312441;20;3516961;-62
2022/07/26 06:12:42;;;;;;;;;14.00;12.67;;;;;24.86;44.12;99044.84;6278117;20;3519099;-61
2022/07/26 06:15:11;;;;;;;;;16.00;14.67;;;;;25.42;43.30;99043.88;6279839;20;3537958;-61
2022/07/26 06:17:43;;;;;;;;;13.00;11.00;;;;;25.76;42.77;99042.91;6277436;20;3531501;-58
2022/07/26 06:20:12;;;;;;;;;16.00;16.00;;;;;25.92;42.31;99042.53;6279500;20;3554435;-58
2022/07/26 06:22:40;;;;;;;;;15.00;15.00;;;;;26.22;41.57;99037.44;6283182;20;3528467;-58
2022/07/26 06:25:09;;;;;;;;;15.00;15.00;;;;;26.38;40.08;99035.34;6316184;20;3530842;-60
2022/07/26 06:27:37;;;;;;;;;15.00;15.00;;;;;27.03;39.80;99029.94;6312309;20;2758656;-60
2022/07/26 06:30:08;;;;;;;;;16.67;16.67;;;;;27.01;39.45;99029.31;6314205;20;3564913;-60
2022/07/26 06:32:36;;;;;;;;;14.33;12.33;;;;;27.35;38.53;99031.75;6297305;20;3513787;-59
2022/07/26 06:35:06;;;;;;;;;15.33;14.00;;;;;27.61;38.40;99038.19;6315756;20;3544003;-60
2022/07/26 06:37:37;;;;;;;;;13.67;13.67;;;;;27.90;36.84;99036.78;6312793;20;3527396;-61
2022/07/26 06:40:08;;;;;;;;;15.33;14.67;;;;;28.15;37.00;99034.03;6313864;20;3543979;-61
2022/07/26 06:42:38;;;;;;;;;15.00;14.00;;;;;28.31;37.74;99029.88;6280575;20;2798650;-60
2022/07/26 06:45:07;;;;;;;;;17.00;15.67;;;;;28.26;38.33;99031.63;6279023;20;3548145;-59
2022/07/26 06:47:36;;;;;;;;;16.00;14.33;;;;;28.24;38.67;99032.69;6278685;20;2815962;-65
2022/07/26 06:50:06;;;;;;;;;17.00;16.00;;;;;28.57;38.33;99023.31;6310285;20;2829512;-64
2022/07/26 06:52:35;;;;;;;;;18.00;16.00;;;;;28.80;37.11;99021.78;6287911;20;3561699;-64
2022/07/26 06:55:06;;;;;;;;;17.00;14.00;;;;;29.56;36.20;99025.13;6318785;20;3546103;-61
2022/07/26 06:57:35;;;;;;;;;14.00;13.00;;;;;29.70;35.67;99026.66;6318322;20;3533701;-61
2022/07/26 07:00:17;;;;;;;;;14.00;13.00;;;;;29.89;35.50;99022.75;6313430;20;3525323;-60
2022/07/26 07:02:46;;;;;;;;;13.67;13.33;;;;;30.39;34.78;99018.78;6285822;20;3521164;-58
2022/07/26 07:05:15;;;;;;;;;15.33;15.33;;;;;31.02;33.91;99025.53;6273766;20;2483617;-58
2022/07/26 07:07:44;;;;;;;;;12.00;12.00;;;;;31.61;32.73;99022.59;6315388;20;3521460;-58
2022/07/26 07:10:13;;;;;;;;;15.00;14.67;;;;;31.19;32.25;99020.06;6320321;20;3539844;-62
2022/07/26 07:12:43;;;;;;;;;19.00;14.33;;;;;31.35;32.47;99015.66;6317705;20;3550268;-63
2022/07/26 07:15:12;;;;;;;;;12.00;12.00;;;;;31.70;32.18;99010.84;6312093;20;2787785;-65
2022/07/26 07:17:41;;;;;;;;;14.67;13.33;;;;;31.90;32.24;99015.91;6282273;20;3531524;-63
2022/07/26 07:20:11;;;;;;;;;17.67;13.33;;;;;32.60;31.70;99012.94;6319544;20;3549191;-58
2022/07/26 07:22:39;;;;;;;;;11.67;11.67;;;;;32.65;31.39;99010.25;6320312;20;3513775;-60
2022/07/26 07:25:08;;;;;;;;;13.67;12.33;;;;;33.31;31.35;99011.19;6319574;20;3539845;-58
2022/07/26 07:27:37;;;;;;;;;16.67;15.67;;;;;32.53;31.35;99022.31;6312140;20;2821213;-59
2022/07/26 07:30:09;;;;;;;;;14.00;13.67;;;;;32.63;31.55;99023.59;6316272;20;3539909;-62
2022/07/26 07:32:38;;;;;;;;;17.00;14.67;;;;;32.56;31.59;99019.03;6317448;20;3549210;-58
2022/07/26 07:35:08;;;;;;;;;16.00;14.00;;;;;33.09;31.24;99015.91;6284136;20;2817966;-58
2022/07/26 07:37:40;;;;;;;;;14.33;12.67;;;;;32.99;31.49;99022.13;6285533;20;3507574;-60
2022/07/26 07:40:21;;;;;;;;;12.00;12.00;;;;;33.29;31.22;99009.78;6313268;20;2798250;-57
2022/07/26 07:42:52;;;;;;;;;20.00;19.00;;;;;33.27;31.26;99001.66;6287824;20;3568976;-59
2022/07/26 07:45:20;;;;;;;;;14.00;14.00;;;;;33.49;30.72;99009.16;6285612;20;3537809;-58
2022/07/26 07:47:49;;;;;;;;;13.00;13.00;;;;;33.59;31.58;99003.72;6283554;20;3533634;-58
2022/07/26 07:50:17;;;;;;;;;18.00;12.67;;;;;33.63;31.46;99004.91;6319936;20;3537718;-57
2022/07/26 07:52:46;;;;;;;;;17.67;15.67;;;;;33.58;31.39;99010.41;6317890;20;3564896;-58
2022/07/26 07:55:15;;;;;;;;;12.67;11.33;;;;;33.14;32.40;99018.75;6284170;20;2483605;-60
2022/07/26 07:58:04;;;;;;;;;15.33;15.33;;;;;33.99;31.77;99020.00;6312477;20;3551399;-59
2022/07/26 08:00:33;;;;;;;;;13.00;13.00;;;;;33.21;33.63;99013.84;6315554;20;3527366;-59
2022/07/26 08:03:01;;;;;;;;;15.33;15.33;;;;;33.51;33.04;99018.09;6319595;20;3558614;-59
2022/07/26 08:05:31;;;;;;;;;18.00;17.00;;;;;33.89;33.26;99011.56;6283276;20;2826316;-59
2022/07/26 08:08:02;;;;;;;;;16.33;16.33;;;;;33.78;33.27;99016.22;6314597;20;3559607;-59
2022/07/26 08:10:31;;;;;;;;;17.00;15.67;;;;;33.85;33.13;99016.81;6316701;20;3562747;-58
2022/07/26 08:12:59;;;;;;;;;15.67;15.67;;;;;33.66;33.46;99004.38;6285997;20;1871196;-57
2022/07/26 08:15:28;;;;;;;;;10.33;10.33;;;;;34.09;32.44;99008.16;6316654;20;3507535;-60
2022/07/26 08:17:58;;;;;;;;;14.33;14.33;;;;;33.63;33.50;99010.47;6317326;20;3541890;-56
2022/07/26 08:20:27;;;;;;;;;15.50;15.00;;;;;34.19;32.53;99008.25;6311851;20;2819136;-59
2022/07/26 08:22:58;;;;;;;;;15.00;15.00;;;;;34.33;32.24;99005.84;6288030;20;3548178;-59
2022/07/26 08:25:27;;;;;;;;;16.00;14.00;;;;;34.08;32.72;99009.28;6286043;20;3549235;-60
2022/07/26 08:27:55;;;;;;;;;17.00;16.00;;;;;34.80;31.61;99018.19;6318414;20;3564882;-57
2022/07/26 08:30:33;;;;;;;;;18.00;16.00;;;;;33.90;32.52;99009.63;6285296;20;3564888;-57
2022/07/26 08:33:02;;;;;;;;;15.00;15.00;;;;;33.76;32.74;99009.22;6283504;20;2808636;-60
2022/07/26 08:35:30;;;;;;;;;15.00;14.67;;;;;34.20;32.50;99009.09;6287657;20;3536123;-58
2022/07/26 08:38:00;;;;;;;;;16.00;15.00;;;;;34.01;32.58;99016.97;6312926;20;3556508;-60
2022/07/26 08:40:29;;;;;;;;;16.00;14.33;;;;;34.18;31.55;99014.06;6315628;20;3552345;-60
2022/07/26 08:42:58;;;;;;;;;19.33;17.67;;;;;34.48;31.55;99010.69;6278929;20;2834748;-59
2022/07/26 08:45:30;;;;;;;;;13.67;13.67;;;;;34.54;31.28;99012.41;6312362;20;3532539;-59
2022/07/26 08:48:00;;;;;;;;;19.00;17.00;;;;;33.97;32.55;99004.69;6282742;20;3575243;-57
2022/07/26 08:50:47;;;;;;;;;17.33;16.00;;;;;33.72;32.85;99003.31;6310536;20;3573264;-60
2022/07/26 08:53:16;;;;;;;;;13.00;12.00;;;;;34.38;32.01;99010.63;6310605;20;2798248;-62
2022/07/26 08:55:45;;;;;;;;;16.00;14.67;;;;;33.94;32.64;99007.97;6287027;20;3548616;-60
2022/07/26 08:58:39;;;;;;;;;16.33;15.00;;;;;33.73;33.33;99007.81;6284450;20;3551477;-57
2022/07/26 09:01:11;;;;;;;;;17.33;16.00;;;;;33.13;34.10;99006.78;6283538;20;3564814;-57
2022/07/26 09:03:45;;;;;;;;;17.00;15.00;;;;;33.54;33.08;99009.25;6283917;20;2821324;-57
2022/07/26 09:06:21;;;;;;;;;20.33;17.33;;;;;33.54;33.70;99006.47;6278581;20;3571174;-57
2022/07/26 09:09:13;;;;;;;;;16.00;16.00;;;;;33.14;34.65;99007.63;6318219;20;3557603;-62
2022/07/26 09:11:41;;;;;;;;;14.67;13.67;;;;;33.59;33.89;99006.53;6283492;20;3539852;-58
2022/07/26 09:14:10;;;;;;;;;10.33;9.33;;;;;33.55;33.26;99005.38;6311601;20;3491017;-57
2022/07/26 09:16:40;;;;;;;;;17.67;16.67;;;;;33.60;34.71;99005.44;6312476;20;3564923;-58
2022/07/26 09:19:22;;;;;;;;;18.33;18.33;;;;;33.38;34.47;99008.19;6308833;20;3581506;-58
2022/07/26 09:21:56;;;;;;;;;15.29;15.00;;;;;33.56;34.46;99007.03;6331361;20;3540988;-58
2022/07/26 09:24:43;;;;;;;;;16.33;16.33;;;;;33.70;35.27;99022.22;6316004;20;3571116;-59
2022/07/26 09:27:16;;;;;;;;;18.00;16.33;;;;;33.07;34.81;99012.53;6281252;20;3566928;-59
2022/07/26 09:29:53;;;;;;;;;18.00;15.67;;;;;33.79;34.18;99006.75;6284814;20;3560674;-57
2022/07/26 09:32:25;;;;;;;;;16.33;15.33;;;;;34.50;33.27;99019.66;6283953;20;3559793;-59
2022/07/26 09:35:16;;;;;;;;;14.00;14.00;;;;;34.69;33.19;99029.28;6280681;20;3534700;-60
2022/07/26 09:38:15;;;;;;;;;19.00;17.00;;;;;34.06;32.91;99023.47;6312594;20;2704552;-59
2022/07/26 09:40:43;;;;;;;;;8.67;8.67;;;;;34.01;33.29;99017.81;6289078;20;2760701;-61
2022/07/26 09:43:19;;;;;;;;;17.00;17.00;;;;;34.47;32.71;99017.41;6313516;20;3557625;-59
2022/07/26 09:46:10;;;;;;;;;15.00;15.00;;;;;33.32;34.01;99015.66;6277810;20;2799436;-59
2022/07/26 09:48:39;;;;;;;;;14.00;13.00;;;;;33.38;34.86;99020.16;6281788;20;2803395;-58
2022/07/26 09:51:42;;;;;;;;;17.00;15.00;;;;;33.83;34.13;99032.94;6284883;20;3554547;-58
2022/07/26 09:54:28;;;;;;;;;16.33;15.33;;;;;33.83;34.39;99032.94;6281406;20;3559012;-59
2022/07/26 09:56:58;;;;;;;;;17.00;16.33;;;;;33.69;33.91;99033.63;6282293;20;3563953;-60
2022/07/26 09:59:28;;;;;;;;;17.00;15.67;;;;;33.43;34.37;99039.72;6283246;20;3550471;-53
2022/07/26 10:02:01;;;;;;;;;20.33;16.67;;;;;32.88;35.48;99037.84;6277952;20;2821558;-58
2022/07/26 10:04:30;;;;;;;;;13.67;13.67;;;;;32.94;35.87;99050.75;6312120;20;2804476;-60
2022/07/26 10:07:00;;;;;;;;;15.00;15.00;;;;;32.96;35.81;99054.09;6309446;20;2698240;-58
2022/07/26 10:10:23;;;;;;;;;17.33;16.00;;;;;32.64;36.46;99059.44;6281201;20;3568995;-56
2022/07/26 10:12:52;;;;;;;;;20.00;16.67;;;;;32.35;36.90;99076.19;6280143;20;3571065;-58
2022/07/26 10:15:47;;;;;;;;;17.33;16.00;;;;;31.99;39.09;99074.69;6280025;20;3569256;-59
2022/07/26 10:18:37;;;;;;;;;15.50;13.50;;;;;32.14;39.10;99082.47;6279352;20;2814862;-58
2022/07/26 10:21:28;;;;;;;;;16.00;15.67;;;;;31.91;39.72;99077.84;6286236;20;3558647;-59
2022/07/26 10:24:02;;;;;;;;;25.00;17.50;;;;;31.85;40.34;99078.84;6282386;20;4338771;-58
2022/07/26 10:26:30;;;;;;;;;15.33;14.00;;;;;31.57;41.57;99083.31;6313918;20;3538771;-58
2022/07/26 10:29:22;;;;;;;;;20.67;17.33;;;;;32.15;40.38;99095.28;6314774;20;3581557;-59
2022/07/26 10:32:12;;;;;;;;;17.00;15.33;;;;;31.57;41.74;99079.69;6284164;20;3554476;-58
2022/07/26 10:34:41;;;;;;;;;14.33;14.33;;;;;31.74;41.79;99085.31;6283435;20;3533596;-57
2022/07/26 10:37:23;;;;;;;;;16.67;14.00;;;;;32.26;40.64;99104.66;6314585;20;3549320;-59
2022/07/26 10:40:24;;;;;;;;;18.33;15.00;;;;;31.60;41.64;99087.53;6279374;20;3554460;-60
2022/07/26 10:42:52;;;;;;;;;16.33;14.67;;;;;30.83;43.34;99083.91;6316418;20;3558656;-60
2022/07/26 10:45:22;;;;;;;;;17.00;15.00;;;;;30.20;43.64;99078.91;6278971;20;3550253;-62
2022/07/26 10:48:14;;;;;;;;;19.67;18.67;;;;;30.14;44.11;99079.88;6312028;20;3563822;-62
2022/07/26 10:50:49;;;;;;;;;23.67;17.67;;;;;30.26;43.99;99080.78;6311462;20;3592998;-63
2022/07/26 10:53:24;;;;;;;;;19.00;17.67;;;;;30.15;44.30;99076.03;6279883;20;3577451;-60
2022/07/26 10:56:00;;;;;;;;;20.33;15.33;;;;;29.67;45.40;99079.69;6279659;20;3560739;-61
2022/07/26 10:58:42;;;;;;;;;18.33;18.33;;;;;29.88;45.37;99084.72;6282313;20;3579386;-63
2022/07/26 11:01:12;;;;;;;;;15.33;15.33;;;;;29.73;46.29;99089.84;6280799;20;3560856;-59
2022/07/26 11:03:43;;;;;;;;;22.00;17.00;;;;;28.98;47.96;99085.34;6278960;20;3569189;-58
2022/07/26 11:06:18;;;;;;;;;21.00;18.67;;;;;28.94;48.34;99100.72;6276928;20;3573233;-59
2022/07/26 11:08:48;;;;;;;;;17.67;17.67;;;;;28.59;49.85;99086.59;6282964;20;3571115;-58
2022/07/26 11:11:30;;;;;;;;;19.00;18.67;;;;;28.57;50.54;99085.97;6283446;20;3575700;-58
2022/07/26 11:14:13;;;;;;;;;11.67;11.67;;;;;28.72;50.41;99075.41;6277736;20;3512722;-59
2022/07/26 11:16:51;;;;;;;;;19.00;17.33;;;;;28.55;51.57;99077.09;6313818;20;3571053;-58
2022/07/26 11:19:24;;;;;;;;;16.50;14.50;;;;;28.28;55.02;99088.31;6278741;20;2814883;-61
2022/07/26 11:21:59;;;;;;;;;18.00;16.00;;;;;27.81;56.66;99117.28;6279129;20;2832560;-59
2022/07/26 11:24:28;;;;;;;;;17.67;16.67;;;;;27.38;58.64;99131.63;6282731;20;3571084;-59